<?xml version="1.0" encoding="UTF-8" standalone="no" ?>
<gpx xmlns="http://www.topografix.com/GPX/1/1" xmlns:xsi="http://www.w3.org/2001/XMLSchema-instance" xsi:schemaLocation="http://www.topografix.com/GPX/1/1 http://www.topografix.com/GPX/1/1/gpx.xsd" version="1.1" creator="VisuGPX - https://www.visugpx.com">
  <metadata>
    <name>13721247-Prémanon - Les Cressonnières</name>
  </metadata>
  <trk>
    <name><![CDATA[13721247-Prémanon - Les Cressonnières]]></name>
    <trkseg>
      <trkpt lat="46.46294" lon="6.02044">
        <ele>1127</ele>
        <time>2021-09-18T15:13:01Z</time>
      </trkpt>
      <trkpt lat="46.4629" lon="6.0211">
        <ele>1127</ele>
        <time>2021-09-18T15:14:02Z</time>
      </trkpt>
      <trkpt lat="46.46289" lon="6.02132">
        <ele>1126</ele>
        <time>2021-09-18T15:14:22Z</time>
      </trkpt>
      <trkpt lat="46.46288" lon="6.02145">
        <ele>1126</ele>
        <time>2021-09-18T15:14:34Z</time>
      </trkpt>
      <trkpt lat="46.46287" lon="6.02153">
        <ele>1126</ele>
        <time>2021-09-18T15:14:42Z</time>
      </trkpt>
      <trkpt lat="46.46285" lon="6.02171">
        <ele>1125</ele>
        <time>2021-09-18T15:14:58Z</time>
      </trkpt>
      <trkpt lat="46.46253" lon="6.02256">
        <ele>1128</ele>
        <time>2021-09-18T15:16:27Z</time>
      </trkpt>
      <trkpt lat="46.46246" lon="6.02287">
        <ele>1126</ele>
        <time>2021-09-18T15:16:57Z</time>
      </trkpt>
      <trkpt lat="46.46244" lon="6.02309">
        <ele>1124</ele>
        <time>2021-09-18T15:17:18Z</time>
      </trkpt>
      <trkpt lat="46.46244" lon="6.02329">
        <ele>1122</ele>
        <time>2021-09-18T15:17:36Z</time>
      </trkpt>
      <trkpt lat="46.46249" lon="6.02355">
        <ele>1120</ele>
        <time>2021-09-18T15:18:01Z</time>
      </trkpt>
      <trkpt lat="46.46249" lon="6.02364">
        <ele>1120</ele>
        <time>2021-09-18T15:18:09Z</time>
      </trkpt>
      <trkpt lat="46.46249" lon="6.02373">
        <ele>1120</ele>
        <time>2021-09-18T15:18:18Z</time>
      </trkpt>
      <trkpt lat="46.46245" lon="6.0239">
        <ele>1121</ele>
        <time>2021-09-18T15:18:34Z</time>
      </trkpt>
      <trkpt lat="46.46232" lon="6.02428">
        <ele>1125</ele>
        <time>2021-09-18T15:19:13Z</time>
      </trkpt>
      <trkpt lat="46.46228" lon="6.02448">
        <ele>1127</ele>
        <time>2021-09-18T15:19:32Z</time>
      </trkpt>
      <trkpt lat="46.46229" lon="6.02464">
        <ele>1127</ele>
        <time>2021-09-18T15:19:47Z</time>
      </trkpt>
      <trkpt lat="46.46231" lon="6.02478">
        <ele>1128</ele>
        <time>2021-09-18T15:20:00Z</time>
      </trkpt>
      <trkpt lat="46.46214" lon="6.02493">
        <ele>1132</ele>
        <time>2021-09-18T15:20:27Z</time>
      </trkpt>
      <trkpt lat="46.46206" lon="6.02508">
        <ele>1134</ele>
        <time>2021-09-18T15:20:44Z</time>
      </trkpt>
      <trkpt lat="46.46203" lon="6.02519">
        <ele>1136</ele>
        <time>2021-09-18T15:20:55Z</time>
      </trkpt>
      <trkpt lat="46.46201" lon="6.02539">
        <ele>1137</ele>
        <time>2021-09-18T15:21:14Z</time>
      </trkpt>
      <trkpt lat="46.46198" lon="6.02586">
        <ele>1139</ele>
        <time>2021-09-18T15:21:57Z</time>
      </trkpt>
      <trkpt lat="46.46201" lon="6.02612">
        <ele>1139</ele>
        <time>2021-09-18T15:22:21Z</time>
      </trkpt>
      <trkpt lat="46.46193" lon="6.02618">
        <ele>1141</ele>
        <time>2021-09-18T15:22:33Z</time>
      </trkpt>
      <trkpt lat="46.46185" lon="6.02632">
        <ele>1142</ele>
        <time>2021-09-18T15:22:50Z</time>
      </trkpt>
      <trkpt lat="46.46166" lon="6.02725">
        <ele>1141</ele>
        <time>2021-09-18T15:24:19Z</time>
      </trkpt>
      <trkpt lat="46.46188" lon="6.02758">
        <ele>1135</ele>
        <time>2021-09-18T15:25:01Z</time>
      </trkpt>
      <trkpt lat="46.46195" lon="6.02766">
        <ele>1134</ele>
        <time>2021-09-18T15:25:13Z</time>
      </trkpt>
      <trkpt lat="46.46208" lon="6.02775">
        <ele>1131</ele>
        <time>2021-09-18T15:25:32Z</time>
      </trkpt>
      <trkpt lat="46.46204" lon="6.02786">
        <ele>1130</ele>
        <time>2021-09-18T15:25:44Z</time>
      </trkpt>
      <trkpt lat="46.46205" lon="6.02789">
        <ele>1130</ele>
        <time>2021-09-18T15:25:47Z</time>
      </trkpt>
      <trkpt lat="46.46205" lon="6.02792">
        <ele>1129</ele>
        <time>2021-09-18T15:25:50Z</time>
      </trkpt>
      <trkpt lat="46.46199" lon="6.02795">
        <ele>1129</ele>
        <time>2021-09-18T15:25:58Z</time>
      </trkpt>
      <trkpt lat="46.46197" lon="6.02812">
        <ele>1127</ele>
        <time>2021-09-18T15:26:14Z</time>
      </trkpt>
      <trkpt lat="46.46162" lon="6.02803">
        <ele>1130</ele>
        <time>2021-09-18T15:27:01Z</time>
      </trkpt>
      <trkpt lat="46.46158" lon="6.02831">
        <ele>1125</ele>
        <time>2021-09-18T15:27:28Z</time>
      </trkpt>
      <trkpt lat="46.46188" lon="6.02834">
        <ele>1124</ele>
        <time>2021-09-18T15:28:08Z</time>
      </trkpt>
      <trkpt lat="46.462" lon="6.02844">
        <ele>1123</ele>
        <time>2021-09-18T15:28:26Z</time>
      </trkpt>
      <trkpt lat="46.46201" lon="6.02873">
        <ele>1122</ele>
        <time>2021-09-18T15:28:53Z</time>
      </trkpt>
      <trkpt lat="46.46201" lon="6.02901">
        <ele>1120</ele>
        <time>2021-09-18T15:29:19Z</time>
      </trkpt>
      <trkpt lat="46.46191" lon="6.02911">
        <ele>1119</ele>
        <time>2021-09-18T15:29:35Z</time>
      </trkpt>
      <trkpt lat="46.46174" lon="6.02924">
        <ele>1118</ele>
        <time>2021-09-18T15:30:01Z</time>
      </trkpt>
      <trkpt lat="46.46159" lon="6.02942">
        <ele>1118</ele>
        <time>2021-09-18T15:30:27Z</time>
      </trkpt>
      <trkpt lat="46.46149" lon="6.02957">
        <ele>1118</ele>
        <time>2021-09-18T15:30:46Z</time>
      </trkpt>
      <trkpt lat="46.4614" lon="6.02971">
        <ele>1119</ele>
        <time>2021-09-18T15:31:03Z</time>
      </trkpt>
      <trkpt lat="46.46146" lon="6.02974">
        <ele>1118</ele>
        <time>2021-09-18T15:31:12Z</time>
      </trkpt>
      <trkpt lat="46.46155" lon="6.02993">
        <ele>1118</ele>
        <time>2021-09-18T15:31:33Z</time>
      </trkpt>
      <trkpt lat="46.46217" lon="6.03066">
        <ele>1117</ele>
        <time>2021-09-18T15:33:20Z</time>
      </trkpt>
      <trkpt lat="46.46218" lon="6.03086">
        <ele>1117</ele>
        <time>2021-09-18T15:33:38Z</time>
      </trkpt>
      <trkpt lat="46.46229" lon="6.0311">
        <ele>1118</ele>
        <time>2021-09-18T15:34:05Z</time>
      </trkpt>
      <trkpt lat="46.46243" lon="6.03135">
        <ele>1118</ele>
        <time>2021-09-18T15:34:34Z</time>
      </trkpt>
      <trkpt lat="46.46261" lon="6.03164">
        <ele>1119</ele>
        <time>2021-09-18T15:35:10Z</time>
      </trkpt>
      <trkpt lat="46.4627" lon="6.0319">
        <ele>1120</ele>
        <time>2021-09-18T15:35:37Z</time>
      </trkpt>
      <trkpt lat="46.46279" lon="6.0322">
        <ele>1120</ele>
        <time>2021-09-18T15:36:07Z</time>
      </trkpt>
      <trkpt lat="46.46291" lon="6.03225">
        <ele>1119</ele>
        <time>2021-09-18T15:36:23Z</time>
      </trkpt>
      <trkpt lat="46.46296" lon="6.03238">
        <ele>1119</ele>
        <time>2021-09-18T15:36:37Z</time>
      </trkpt>
      <trkpt lat="46.46316" lon="6.03277">
        <ele>1117</ele>
        <time>2021-09-18T15:37:22Z</time>
      </trkpt>
      <trkpt lat="46.46317" lon="6.03279">
        <ele>1117</ele>
        <time>2021-09-18T15:37:24Z</time>
      </trkpt>
      <trkpt lat="46.46314" lon="6.03281">
        <ele>1117</ele>
        <time>2021-09-18T15:37:29Z</time>
      </trkpt>
      <trkpt lat="46.46328" lon="6.03314">
        <ele>1116</ele>
        <time>2021-09-18T15:38:04Z</time>
      </trkpt>
      <trkpt lat="46.46338" lon="6.03339">
        <ele>1115</ele>
        <time>2021-09-18T15:38:31Z</time>
      </trkpt>
      <trkpt lat="46.46358" lon="6.03363">
        <ele>1114</ele>
        <time>2021-09-18T15:39:05Z</time>
      </trkpt>
      <trkpt lat="46.4638" lon="6.0339">
        <ele>1112</ele>
        <time>2021-09-18T15:39:44Z</time>
      </trkpt>
      <trkpt lat="46.46396" lon="6.03416">
        <ele>1111</ele>
        <time>2021-09-18T15:40:16Z</time>
      </trkpt>
      <trkpt lat="46.46406" lon="6.03442">
        <ele>1109</ele>
        <time>2021-09-18T15:40:43Z</time>
      </trkpt>
      <trkpt lat="46.46408" lon="6.03471">
        <ele>1107</ele>
        <time>2021-09-18T15:41:10Z</time>
      </trkpt>
      <trkpt lat="46.46407" lon="6.03496">
        <ele>1106</ele>
        <time>2021-09-18T15:41:33Z</time>
      </trkpt>
      <trkpt lat="46.46404" lon="6.03523">
        <ele>1105</ele>
        <time>2021-09-18T15:41:58Z</time>
      </trkpt>
      <trkpt lat="46.46405" lon="6.03551">
        <ele>1103</ele>
        <time>2021-09-18T15:42:24Z</time>
      </trkpt>
      <trkpt lat="46.46414" lon="6.03578">
        <ele>1100</ele>
        <time>2021-09-18T15:42:52Z</time>
      </trkpt>
      <trkpt lat="46.46425" lon="6.03594">
        <ele>1098</ele>
        <time>2021-09-18T15:43:12Z</time>
      </trkpt>
      <trkpt lat="46.46442" lon="6.0362">
        <ele>1097</ele>
        <time>2021-09-18T15:43:45Z</time>
      </trkpt>
      <trkpt lat="46.46459" lon="6.03655">
        <ele>1095</ele>
        <time>2021-09-18T15:44:25Z</time>
      </trkpt>
      <trkpt lat="46.46478" lon="6.03696">
        <ele>1093</ele>
        <time>2021-09-18T15:45:10Z</time>
      </trkpt>
      <trkpt lat="46.46494" lon="6.03737">
        <ele>1094</ele>
        <time>2021-09-18T15:45:53Z</time>
      </trkpt>
      <trkpt lat="46.46511" lon="6.03779">
        <ele>1095</ele>
        <time>2021-09-18T15:46:38Z</time>
      </trkpt>
      <trkpt lat="46.46533" lon="6.03822">
        <ele>1096</ele>
        <time>2021-09-18T15:47:27Z</time>
      </trkpt>
      <trkpt lat="46.46542" lon="6.03861">
        <ele>1097</ele>
        <time>2021-09-18T15:48:05Z</time>
      </trkpt>
      <trkpt lat="46.46543" lon="6.03905">
        <ele>1097</ele>
        <time>2021-09-18T15:48:46Z</time>
      </trkpt>
      <trkpt lat="46.46542" lon="6.03935">
        <ele>1097</ele>
        <time>2021-09-18T15:49:13Z</time>
      </trkpt>
      <trkpt lat="46.46555" lon="6.03989">
        <ele>1097</ele>
        <time>2021-09-18T15:50:06Z</time>
      </trkpt>
      <trkpt lat="46.4657" lon="6.04014">
        <ele>1098</ele>
        <time>2021-09-18T15:50:36Z</time>
      </trkpt>
      <trkpt lat="46.4659" lon="6.0404">
        <ele>1098</ele>
        <time>2021-09-18T15:51:12Z</time>
      </trkpt>
      <trkpt lat="46.46608" lon="6.04066">
        <ele>1098</ele>
        <time>2021-09-18T15:51:46Z</time>
      </trkpt>
      <trkpt lat="46.46631" lon="6.0409">
        <ele>1098</ele>
        <time>2021-09-18T15:52:24Z</time>
      </trkpt>
      <trkpt lat="46.46668" lon="6.04148">
        <ele>1098</ele>
        <time>2021-09-18T15:53:36Z</time>
      </trkpt>
      <trkpt lat="46.46686" lon="6.04188">
        <ele>1095</ele>
        <time>2021-09-18T15:54:20Z</time>
      </trkpt>
      <trkpt lat="46.46693" lon="6.04205">
        <ele>1093</ele>
        <time>2021-09-18T15:54:39Z</time>
      </trkpt>
      <trkpt lat="46.46698" lon="6.0422">
        <ele>1092</ele>
        <time>2021-09-18T15:54:54Z</time>
      </trkpt>
      <trkpt lat="46.46704" lon="6.04257">
        <ele>1090</ele>
        <time>2021-09-18T15:55:29Z</time>
      </trkpt>
      <trkpt lat="46.46707" lon="6.04285">
        <ele>1089</ele>
        <time>2021-09-18T15:55:55Z</time>
      </trkpt>
      <trkpt lat="46.46709" lon="6.04317">
        <ele>1088</ele>
        <time>2021-09-18T15:56:24Z</time>
      </trkpt>
      <trkpt lat="46.46697" lon="6.04347">
        <ele>1088</ele>
        <time>2021-09-18T15:56:56Z</time>
      </trkpt>
      <trkpt lat="46.46693" lon="6.0437">
        <ele>1087</ele>
        <time>2021-09-18T15:57:18Z</time>
      </trkpt>
      <trkpt lat="46.46687" lon="6.04401">
        <ele>1087</ele>
        <time>2021-09-18T15:57:48Z</time>
      </trkpt>
      <trkpt lat="46.46678" lon="6.04417">
        <ele>1088</ele>
        <time>2021-09-18T15:58:07Z</time>
      </trkpt>
      <trkpt lat="46.46688" lon="6.04433">
        <ele>1085</ele>
        <time>2021-09-18T15:58:27Z</time>
      </trkpt>
      <trkpt lat="46.46721" lon="6.04444">
        <ele>1078</ele>
        <time>2021-09-18T15:59:12Z</time>
      </trkpt>
      <trkpt lat="46.46781" lon="6.04447">
        <ele>1070</ele>
        <time>2021-09-18T16:00:32Z</time>
      </trkpt>
      <trkpt lat="46.46794" lon="6.0444">
        <ele>1069</ele>
        <time>2021-09-18T16:00:50Z</time>
      </trkpt>
      <trkpt lat="46.46805" lon="6.0444">
        <ele>1068</ele>
        <time>2021-09-18T16:01:05Z</time>
      </trkpt>
      <trkpt lat="46.46808" lon="6.04458">
        <ele>1066</ele>
        <time>2021-09-18T16:01:22Z</time>
      </trkpt>
      <trkpt lat="46.46794" lon="6.04497">
        <ele>1064</ele>
        <time>2021-09-18T16:02:02Z</time>
      </trkpt>
      <trkpt lat="46.46775" lon="6.0454">
        <ele>1059</ele>
        <time>2021-09-18T16:02:49Z</time>
      </trkpt>
      <trkpt lat="46.46762" lon="6.04552">
        <ele>1058</ele>
        <time>2021-09-18T16:03:10Z</time>
      </trkpt>
      <trkpt lat="46.46754" lon="6.04573">
        <ele>1055</ele>
        <time>2021-09-18T16:03:32Z</time>
      </trkpt>
      <trkpt lat="46.46739" lon="6.04621">
        <ele>1052</ele>
        <time>2021-09-18T16:04:21Z</time>
      </trkpt>
      <trkpt lat="46.46721" lon="6.04642">
        <ele>1052</ele>
        <time>2021-09-18T16:04:51Z</time>
      </trkpt>
      <trkpt lat="46.46707" lon="6.04672">
        <ele>1051</ele>
        <time>2021-09-18T16:05:25Z</time>
      </trkpt>
      <trkpt lat="46.46702" lon="6.04703">
        <ele>1049</ele>
        <time>2021-09-18T16:05:54Z</time>
      </trkpt>
      <trkpt lat="46.46683" lon="6.04741">
        <ele>1049</ele>
        <time>2021-09-18T16:06:37Z</time>
      </trkpt>
      <trkpt lat="46.46665" lon="6.04769">
        <ele>1049</ele>
        <time>2021-09-18T16:07:12Z</time>
      </trkpt>
      <trkpt lat="46.46645" lon="6.04789">
        <ele>1050</ele>
        <time>2021-09-18T16:07:45Z</time>
      </trkpt>
      <trkpt lat="46.46615" lon="6.0482">
        <ele>1053</ele>
        <time>2021-09-18T16:08:34Z</time>
      </trkpt>
      <trkpt lat="46.46604" lon="6.04846">
        <ele>1051</ele>
        <time>2021-09-18T16:09:02Z</time>
      </trkpt>
      <trkpt lat="46.46598" lon="6.04859">
        <ele>1049</ele>
        <time>2021-09-18T16:09:16Z</time>
      </trkpt>
      <trkpt lat="46.46571" lon="6.04892">
        <ele>1044</ele>
        <time>2021-09-18T16:10:03Z</time>
      </trkpt>
      <trkpt lat="46.46542" lon="6.04915">
        <ele>1039</ele>
        <time>2021-09-18T16:10:47Z</time>
      </trkpt>
      <trkpt lat="46.46514" lon="6.04934">
        <ele>1036</ele>
        <time>2021-09-18T16:11:29Z</time>
      </trkpt>
      <trkpt lat="46.46486" lon="6.0497">
        <ele>1030</ele>
        <time>2021-09-18T16:12:19Z</time>
      </trkpt>
      <trkpt lat="46.46474" lon="6.04991">
        <ele>1028</ele>
        <time>2021-09-18T16:12:44Z</time>
      </trkpt>
      <trkpt lat="46.46456" lon="6.05017">
        <ele>1030</ele>
        <time>2021-09-18T16:13:18Z</time>
      </trkpt>
      <trkpt lat="46.46459" lon="6.05027">
        <ele>1030</ele>
        <time>2021-09-18T16:13:28Z</time>
      </trkpt>
      <trkpt lat="46.46472" lon="6.05041">
        <ele>1027</ele>
        <time>2021-09-18T16:13:49Z</time>
      </trkpt>
      <trkpt lat="46.46499" lon="6.05054">
        <ele>1021</ele>
        <time>2021-09-18T16:14:27Z</time>
      </trkpt>
      <trkpt lat="46.46512" lon="6.05093">
        <ele>1020</ele>
        <time>2021-09-18T16:15:07Z</time>
      </trkpt>
      <trkpt lat="46.4652" lon="6.05119">
        <ele>1020</ele>
        <time>2021-09-18T16:15:33Z</time>
      </trkpt>
      <trkpt lat="46.46516" lon="6.05173">
        <ele>1023</ele>
        <time>2021-09-18T16:16:23Z</time>
      </trkpt>
      <trkpt lat="46.46526" lon="6.05191">
        <ele>1025</ele>
        <time>2021-09-18T16:16:44Z</time>
      </trkpt>
      <trkpt lat="46.46535" lon="6.05189">
        <ele>1025</ele>
        <time>2021-09-18T16:16:56Z</time>
      </trkpt>
      <trkpt lat="46.46546" lon="6.05193">
        <ele>1026</ele>
        <time>2021-09-18T16:17:12Z</time>
      </trkpt>
      <trkpt lat="46.46545" lon="6.05201">
        <ele>1027</ele>
        <time>2021-09-18T16:17:19Z</time>
      </trkpt>
      <trkpt lat="46.46538" lon="6.05218">
        <ele>1028</ele>
        <time>2021-09-18T16:17:37Z</time>
      </trkpt>
      <trkpt lat="46.46534" lon="6.0524">
        <ele>1030</ele>
        <time>2021-09-18T16:17:58Z</time>
      </trkpt>
      <trkpt lat="46.46528" lon="6.05255">
        <ele>1032</ele>
        <time>2021-09-18T16:18:14Z</time>
      </trkpt>
      <trkpt lat="46.46533" lon="6.05275">
        <ele>1036</ele>
        <time>2021-09-18T16:18:34Z</time>
      </trkpt>
      <trkpt lat="46.46534" lon="6.05294">
        <ele>1040</ele>
        <time>2021-09-18T16:18:51Z</time>
      </trkpt>
      <trkpt lat="46.4654" lon="6.05298">
        <ele>1042</ele>
        <time>2021-09-18T16:19:00Z</time>
      </trkpt>
      <trkpt lat="46.46544" lon="6.0531">
        <ele>1046</ele>
        <time>2021-09-18T16:19:12Z</time>
      </trkpt>
      <trkpt lat="46.46542" lon="6.05323">
        <ele>1048</ele>
        <time>2021-09-18T16:19:25Z</time>
      </trkpt>
      <trkpt lat="46.46528" lon="6.05345">
        <ele>1050</ele>
        <time>2021-09-18T16:19:52Z</time>
      </trkpt>
      <trkpt lat="46.46512" lon="6.05348">
        <ele>1047</ele>
        <time>2021-09-18T16:20:14Z</time>
      </trkpt>
      <trkpt lat="46.46498" lon="6.05336">
        <ele>1042</ele>
        <time>2021-09-18T16:20:35Z</time>
      </trkpt>
      <trkpt lat="46.46491" lon="6.05349">
        <ele>1045</ele>
        <time>2021-09-18T16:20:50Z</time>
      </trkpt>
      <trkpt lat="46.46491" lon="6.05361">
        <ele>1047</ele>
        <time>2021-09-18T16:21:01Z</time>
      </trkpt>
      <trkpt lat="46.46479" lon="6.05382">
        <ele>1049</ele>
        <time>2021-09-18T16:21:27Z</time>
      </trkpt>
      <trkpt lat="46.46478" lon="6.0539">
        <ele>1050</ele>
        <time>2021-09-18T16:21:34Z</time>
      </trkpt>
      <trkpt lat="46.4646" lon="6.05406">
        <ele>1050</ele>
        <time>2021-09-18T16:22:02Z</time>
      </trkpt>
      <trkpt lat="46.46431" lon="6.05438">
        <ele>1047</ele>
        <time>2021-09-18T16:22:51Z</time>
      </trkpt>
      <trkpt lat="46.46412" lon="6.0546">
        <ele>1046</ele>
        <time>2021-09-18T16:23:23Z</time>
      </trkpt>
      <trkpt lat="46.46403" lon="6.05474">
        <ele>1047</ele>
        <time>2021-09-18T16:23:41Z</time>
      </trkpt>
      <trkpt lat="46.46399" lon="6.05505">
        <ele>1047</ele>
        <time>2021-09-18T16:24:10Z</time>
      </trkpt>
      <trkpt lat="46.46403" lon="6.05527">
        <ele>1048</ele>
        <time>2021-09-18T16:24:31Z</time>
      </trkpt>
      <trkpt lat="46.46423" lon="6.05567">
        <ele>1050</ele>
        <time>2021-09-18T16:25:16Z</time>
      </trkpt>
      <trkpt lat="46.46412" lon="6.05581">
        <ele>1048</ele>
        <time>2021-09-18T16:25:36Z</time>
      </trkpt>
      <trkpt lat="46.46403" lon="6.05613">
        <ele>1049</ele>
        <time>2021-09-18T16:26:07Z</time>
      </trkpt>
      <trkpt lat="46.46391" lon="6.05644">
        <ele>1050</ele>
        <time>2021-09-18T16:26:40Z</time>
      </trkpt>
      <trkpt lat="46.46369" lon="6.0568">
        <ele>1052</ele>
        <time>2021-09-18T16:27:24Z</time>
      </trkpt>
      <trkpt lat="46.46351" lon="6.05708">
        <ele>1053</ele>
        <time>2021-09-18T16:28:00Z</time>
      </trkpt>
      <trkpt lat="46.46333" lon="6.0573">
        <ele>1052</ele>
        <time>2021-09-18T16:28:31Z</time>
      </trkpt>
      <trkpt lat="46.46319" lon="6.0574">
        <ele>1052</ele>
        <time>2021-09-18T16:28:52Z</time>
      </trkpt>
      <trkpt lat="46.46305" lon="6.0577">
        <ele>1054</ele>
        <time>2021-09-18T16:29:25Z</time>
      </trkpt>
      <trkpt lat="46.46295" lon="6.0581">
        <ele>1057</ele>
        <time>2021-09-18T16:30:04Z</time>
      </trkpt>
      <trkpt lat="46.46287" lon="6.05844">
        <ele>1059</ele>
        <time>2021-09-18T16:30:37Z</time>
      </trkpt>
      <trkpt lat="46.46279" lon="6.05879">
        <ele>1062</ele>
        <time>2021-09-18T16:31:11Z</time>
      </trkpt>
      <trkpt lat="46.46272" lon="6.05911">
        <ele>1064</ele>
        <time>2021-09-18T16:31:42Z</time>
      </trkpt>
      <trkpt lat="46.46258" lon="6.05955">
        <ele>1067</ele>
        <time>2021-09-18T16:32:27Z</time>
      </trkpt>
      <trkpt lat="46.4625" lon="6.05981">
        <ele>1068</ele>
        <time>2021-09-18T16:32:53Z</time>
      </trkpt>
      <trkpt lat="46.4624" lon="6.06009">
        <ele>1070</ele>
        <time>2021-09-18T16:33:22Z</time>
      </trkpt>
      <trkpt lat="46.46225" lon="6.06015">
        <ele>1068</ele>
        <time>2021-09-18T16:33:43Z</time>
      </trkpt>
      <trkpt lat="46.46208" lon="6.06016">
        <ele>1066</ele>
        <time>2021-09-18T16:34:05Z</time>
      </trkpt>
      <trkpt lat="46.46172" lon="6.06031">
        <ele>1063</ele>
        <time>2021-09-18T16:34:55Z</time>
      </trkpt>
      <trkpt lat="46.46154" lon="6.06032">
        <ele>1064</ele>
        <time>2021-09-18T16:35:19Z</time>
      </trkpt>
      <trkpt lat="46.46144" lon="6.06025">
        <ele>1064</ele>
        <time>2021-09-18T16:35:34Z</time>
      </trkpt>
      <trkpt lat="46.46133" lon="6.06013">
        <ele>1064</ele>
        <time>2021-09-18T16:35:52Z</time>
      </trkpt>
      <trkpt lat="46.46128" lon="6.05996">
        <ele>1064</ele>
        <time>2021-09-18T16:36:09Z</time>
      </trkpt>
      <trkpt lat="46.46115" lon="6.0596">
        <ele>1064</ele>
        <time>2021-09-18T16:36:47Z</time>
      </trkpt>
      <trkpt lat="46.46118" lon="6.05929">
        <ele>1063</ele>
        <time>2021-09-18T16:37:16Z</time>
      </trkpt>
      <trkpt lat="46.46118" lon="6.05912">
        <ele>1063</ele>
        <time>2021-09-18T16:37:31Z</time>
      </trkpt>
      <trkpt lat="46.46106" lon="6.05866">
        <ele>1066</ele>
        <time>2021-09-18T16:38:16Z</time>
      </trkpt>
      <trkpt lat="46.46094" lon="6.0583">
        <ele>1069</ele>
        <time>2021-09-18T16:38:53Z</time>
      </trkpt>
      <trkpt lat="46.46085" lon="6.05804">
        <ele>1072</ele>
        <time>2021-09-18T16:39:20Z</time>
      </trkpt>
      <trkpt lat="46.46079" lon="6.05797">
        <ele>1073</ele>
        <time>2021-09-18T16:39:30Z</time>
      </trkpt>
      <trkpt lat="46.46071" lon="6.05802">
        <ele>1074</ele>
        <time>2021-09-18T16:39:42Z</time>
      </trkpt>
      <trkpt lat="46.46048" lon="6.05841">
        <ele>1076</ele>
        <time>2021-09-18T16:40:29Z</time>
      </trkpt>
      <trkpt lat="46.46034" lon="6.05865">
        <ele>1077</ele>
        <time>2021-09-18T16:40:58Z</time>
      </trkpt>
      <trkpt lat="46.46015" lon="6.05889">
        <ele>1079</ele>
        <time>2021-09-18T16:41:32Z</time>
      </trkpt>
      <trkpt lat="46.45995" lon="6.05916">
        <ele>1080</ele>
        <time>2021-09-18T16:42:08Z</time>
      </trkpt>
      <trkpt lat="46.45977" lon="6.05948">
        <ele>1084</ele>
        <time>2021-09-18T16:42:46Z</time>
      </trkpt>
      <trkpt lat="46.45959" lon="6.05983">
        <ele>1087</ele>
        <time>2021-09-18T16:43:26Z</time>
      </trkpt>
      <trkpt lat="46.45939" lon="6.06031">
        <ele>1089</ele>
        <time>2021-09-18T16:44:18Z</time>
      </trkpt>
      <trkpt lat="46.45929" lon="6.06059">
        <ele>1089</ele>
        <time>2021-09-18T16:44:47Z</time>
      </trkpt>
      <trkpt lat="46.45919" lon="6.06106">
        <ele>1090</ele>
        <time>2021-09-18T16:45:32Z</time>
      </trkpt>
      <trkpt lat="46.45912" lon="6.06115">
        <ele>1092</ele>
        <time>2021-09-18T16:45:44Z</time>
      </trkpt>
      <trkpt lat="46.45892" lon="6.06123">
        <ele>1095</ele>
        <time>2021-09-18T16:46:12Z</time>
      </trkpt>
      <trkpt lat="46.45872" lon="6.06143">
        <ele>1099</ele>
        <time>2021-09-18T16:46:44Z</time>
      </trkpt>
      <trkpt lat="46.45853" lon="6.0616">
        <ele>1102</ele>
        <time>2021-09-18T16:47:14Z</time>
      </trkpt>
      <trkpt lat="46.45838" lon="6.06182">
        <ele>1105</ele>
        <time>2021-09-18T16:47:43Z</time>
      </trkpt>
      <trkpt lat="46.45822" lon="6.06202">
        <ele>1109</ele>
        <time>2021-09-18T16:48:11Z</time>
      </trkpt>
      <trkpt lat="46.45803" lon="6.06217">
        <ele>1113</ele>
        <time>2021-09-18T16:48:40Z</time>
      </trkpt>
      <trkpt lat="46.45792" lon="6.06238">
        <ele>1117</ele>
        <time>2021-09-18T16:49:04Z</time>
      </trkpt>
      <trkpt lat="46.45784" lon="6.06261">
        <ele>1119</ele>
        <time>2021-09-18T16:49:28Z</time>
      </trkpt>
      <trkpt lat="46.45771" lon="6.06275">
        <ele>1122</ele>
        <time>2021-09-18T16:49:49Z</time>
      </trkpt>
      <trkpt lat="46.45763" lon="6.06287">
        <ele>1123</ele>
        <time>2021-09-18T16:50:05Z</time>
      </trkpt>
      <trkpt lat="46.45759" lon="6.06309">
        <ele>1124</ele>
        <time>2021-09-18T16:50:26Z</time>
      </trkpt>
      <trkpt lat="46.4574" lon="6.06336">
        <ele>1126</ele>
        <time>2021-09-18T16:51:01Z</time>
      </trkpt>
      <trkpt lat="46.45725" lon="6.06345">
        <ele>1126</ele>
        <time>2021-09-18T16:51:23Z</time>
      </trkpt>
      <trkpt lat="46.45701" lon="6.06357">
        <ele>1127</ele>
        <time>2021-09-18T16:51:57Z</time>
      </trkpt>
      <trkpt lat="46.45684" lon="6.06367">
        <ele>1127</ele>
        <time>2021-09-18T16:52:21Z</time>
      </trkpt>
      <trkpt lat="46.45665" lon="6.06373">
        <ele>1127</ele>
        <time>2021-09-18T16:52:47Z</time>
      </trkpt>
      <trkpt lat="46.45647" lon="6.06387">
        <ele>1127</ele>
        <time>2021-09-18T16:53:14Z</time>
      </trkpt>
      <trkpt lat="46.4563" lon="6.06396">
        <ele>1127</ele>
        <time>2021-09-18T16:53:38Z</time>
      </trkpt>
      <trkpt lat="46.45603" lon="6.06365">
        <ele>1129</ele>
        <time>2021-09-18T16:54:24Z</time>
      </trkpt>
      <trkpt lat="46.45592" lon="6.0634">
        <ele>1128</ele>
        <time>2021-09-18T16:54:52Z</time>
      </trkpt>
      <trkpt lat="46.45588" lon="6.06304">
        <ele>1130</ele>
        <time>2021-09-18T16:55:25Z</time>
      </trkpt>
      <trkpt lat="46.45589" lon="6.06255">
        <ele>1132</ele>
        <time>2021-09-18T16:56:10Z</time>
      </trkpt>
      <trkpt lat="46.45591" lon="6.06199">
        <ele>1138</ele>
        <time>2021-09-18T16:57:02Z</time>
      </trkpt>
      <trkpt lat="46.45594" lon="6.06148">
        <ele>1143</ele>
        <time>2021-09-18T16:57:49Z</time>
      </trkpt>
      <trkpt lat="46.45602" lon="6.06108">
        <ele>1146</ele>
        <time>2021-09-18T16:58:27Z</time>
      </trkpt>
      <trkpt lat="46.45619" lon="6.06075">
        <ele>1147</ele>
        <time>2021-09-18T16:59:05Z</time>
      </trkpt>
      <trkpt lat="46.45634" lon="6.06057">
        <ele>1146</ele>
        <time>2021-09-18T16:59:31Z</time>
      </trkpt>
      <trkpt lat="46.45644" lon="6.06028">
        <ele>1148</ele>
        <time>2021-09-18T17:00:01Z</time>
      </trkpt>
      <trkpt lat="46.45661" lon="6.05977">
        <ele>1150</ele>
        <time>2021-09-18T17:00:53Z</time>
      </trkpt>
      <trkpt lat="46.45678" lon="6.0593">
        <ele>1152</ele>
        <time>2021-09-18T17:01:42Z</time>
      </trkpt>
      <trkpt lat="46.45683" lon="6.05874">
        <ele>1155</ele>
        <time>2021-09-18T17:02:34Z</time>
      </trkpt>
      <trkpt lat="46.45692" lon="6.05817">
        <ele>1156</ele>
        <time>2021-09-18T17:03:27Z</time>
      </trkpt>
      <trkpt lat="46.45708" lon="6.05759">
        <ele>1156</ele>
        <time>2021-09-18T17:04:25Z</time>
      </trkpt>
      <trkpt lat="46.45722" lon="6.05696">
        <ele>1157</ele>
        <time>2021-09-18T17:05:26Z</time>
      </trkpt>
      <trkpt lat="46.45725" lon="6.05648">
        <ele>1158</ele>
        <time>2021-09-18T17:06:10Z</time>
      </trkpt>
      <trkpt lat="46.45724" lon="6.05618">
        <ele>1157</ele>
        <time>2021-09-18T17:06:37Z</time>
      </trkpt>
      <trkpt lat="46.45715" lon="6.05582">
        <ele>1157</ele>
        <time>2021-09-18T17:07:13Z</time>
      </trkpt>
      <trkpt lat="46.45703" lon="6.05538">
        <ele>1155</ele>
        <time>2021-09-18T17:07:56Z</time>
      </trkpt>
      <trkpt lat="46.45727" lon="6.05524">
        <ele>1151</ele>
        <time>2021-09-18T17:08:31Z</time>
      </trkpt>
      <trkpt lat="46.45759" lon="6.05507">
        <ele>1147</ele>
        <time>2021-09-18T17:09:16Z</time>
      </trkpt>
      <trkpt lat="46.45793" lon="6.05474">
        <ele>1143</ele>
        <time>2021-09-18T17:10:11Z</time>
      </trkpt>
      <trkpt lat="46.4582" lon="6.05449">
        <ele>1140</ele>
        <time>2021-09-18T17:10:54Z</time>
      </trkpt>
      <trkpt lat="46.45835" lon="6.05424">
        <ele>1136</ele>
        <time>2021-09-18T17:11:24Z</time>
      </trkpt>
      <trkpt lat="46.45843" lon="6.05384">
        <ele>1134</ele>
        <time>2021-09-18T17:12:02Z</time>
      </trkpt>
      <trkpt lat="46.45849" lon="6.05349">
        <ele>1132</ele>
        <time>2021-09-18T17:12:35Z</time>
      </trkpt>
      <trkpt lat="46.45853" lon="6.0534">
        <ele>1131</ele>
        <time>2021-09-18T17:12:45Z</time>
      </trkpt>
      <trkpt lat="46.45859" lon="6.05342">
        <ele>1131</ele>
        <time>2021-09-18T17:12:53Z</time>
      </trkpt>
      <trkpt lat="46.45855" lon="6.0532">
        <ele>1129</ele>
        <time>2021-09-18T17:13:14Z</time>
      </trkpt>
      <trkpt lat="46.45843" lon="6.05305">
        <ele>1129</ele>
        <time>2021-09-18T17:13:36Z</time>
      </trkpt>
      <trkpt lat="46.45828" lon="6.05292">
        <ele>1128</ele>
        <time>2021-09-18T17:13:59Z</time>
      </trkpt>
      <trkpt lat="46.45811" lon="6.05289">
        <ele>1129</ele>
        <time>2021-09-18T17:14:22Z</time>
      </trkpt>
      <trkpt lat="46.45801" lon="6.05292">
        <ele>1130</ele>
        <time>2021-09-18T17:14:35Z</time>
      </trkpt>
      <trkpt lat="46.4579" lon="6.05289">
        <ele>1131</ele>
        <time>2021-09-18T17:14:50Z</time>
      </trkpt>
      <trkpt lat="46.45763" lon="6.05258">
        <ele>1129</ele>
        <time>2021-09-18T17:15:36Z</time>
      </trkpt>
      <trkpt lat="46.45731" lon="6.05231">
        <ele>1129</ele>
        <time>2021-09-18T17:16:26Z</time>
      </trkpt>
      <trkpt lat="46.45702" lon="6.05202">
        <ele>1130</ele>
        <time>2021-09-18T17:17:13Z</time>
      </trkpt>
      <trkpt lat="46.45682" lon="6.05184">
        <ele>1131</ele>
        <time>2021-09-18T17:17:44Z</time>
      </trkpt>
      <trkpt lat="46.45665" lon="6.05152">
        <ele>1132</ele>
        <time>2021-09-18T17:18:21Z</time>
      </trkpt>
      <trkpt lat="46.45648" lon="6.05117">
        <ele>1132</ele>
        <time>2021-09-18T17:19:01Z</time>
      </trkpt>
      <trkpt lat="46.45627" lon="6.05066">
        <ele>1132</ele>
        <time>2021-09-18T17:19:55Z</time>
      </trkpt>
      <trkpt lat="46.45606" lon="6.05031">
        <ele>1130</ele>
        <time>2021-09-18T17:20:38Z</time>
      </trkpt>
      <trkpt lat="46.45572" lon="6.04993">
        <ele>1129</ele>
        <time>2021-09-18T17:21:35Z</time>
      </trkpt>
      <trkpt lat="46.4557" lon="6.04978">
        <ele>1129</ele>
        <time>2021-09-18T17:21:49Z</time>
      </trkpt>
      <trkpt lat="46.45581" lon="6.0496">
        <ele>1128</ele>
        <time>2021-09-18T17:22:11Z</time>
      </trkpt>
      <trkpt lat="46.45615" lon="6.04895">
        <ele>1130</ele>
        <time>2021-09-18T17:23:26Z</time>
      </trkpt>
      <trkpt lat="46.45627" lon="6.04888">
        <ele>1131</ele>
        <time>2021-09-18T17:23:44Z</time>
      </trkpt>
      <trkpt lat="46.45633" lon="6.04897">
        <ele>1130</ele>
        <time>2021-09-18T17:23:55Z</time>
      </trkpt>
      <trkpt lat="46.45656" lon="6.04904">
        <ele>1130</ele>
        <time>2021-09-18T17:24:26Z</time>
      </trkpt>
      <trkpt lat="46.45678" lon="6.04891">
        <ele>1131</ele>
        <time>2021-09-18T17:24:58Z</time>
      </trkpt>
      <trkpt lat="46.45691" lon="6.04874">
        <ele>1132</ele>
        <time>2021-09-18T17:25:21Z</time>
      </trkpt>
      <trkpt lat="46.45695" lon="6.04898">
        <ele>1130</ele>
        <time>2021-09-18T17:25:44Z</time>
      </trkpt>
      <trkpt lat="46.45708" lon="6.04918">
        <ele>1128</ele>
        <time>2021-09-18T17:26:09Z</time>
      </trkpt>
      <trkpt lat="46.45722" lon="6.04921">
        <ele>1128</ele>
        <time>2021-09-18T17:26:28Z</time>
      </trkpt>
      <trkpt lat="46.4577" lon="6.04914">
        <ele>1128</ele>
        <time>2021-09-18T17:27:33Z</time>
      </trkpt>
      <trkpt lat="46.45794" lon="6.04914">
        <ele>1127</ele>
        <time>2021-09-18T17:28:05Z</time>
      </trkpt>
      <trkpt lat="46.45817" lon="6.04914">
        <ele>1127</ele>
        <time>2021-09-18T17:28:35Z</time>
      </trkpt>
      <trkpt lat="46.45848" lon="6.04911">
        <ele>1125</ele>
        <time>2021-09-18T17:29:17Z</time>
      </trkpt>
      <trkpt lat="46.45879" lon="6.04907">
        <ele>1122</ele>
        <time>2021-09-18T17:29:58Z</time>
      </trkpt>
      <trkpt lat="46.45922" lon="6.04901">
        <ele>1118</ele>
        <time>2021-09-18T17:30:56Z</time>
      </trkpt>
      <trkpt lat="46.45934" lon="6.04886">
        <ele>1116</ele>
        <time>2021-09-18T17:31:17Z</time>
      </trkpt>
      <trkpt lat="46.45946" lon="6.04851">
        <ele>1113</ele>
        <time>2021-09-18T17:31:53Z</time>
      </trkpt>
      <trkpt lat="46.45953" lon="6.04798">
        <ele>1115</ele>
        <time>2021-09-18T17:32:43Z</time>
      </trkpt>
      <trkpt lat="46.45959" lon="6.04787">
        <ele>1115</ele>
        <time>2021-09-18T17:32:56Z</time>
      </trkpt>
      <trkpt lat="46.45968" lon="6.04778">
        <ele>1116</ele>
        <time>2021-09-18T17:33:10Z</time>
      </trkpt>
      <trkpt lat="46.46004" lon="6.04776">
        <ele>1113</ele>
        <time>2021-09-18T17:33:58Z</time>
      </trkpt>
      <trkpt lat="46.46036" lon="6.04773">
        <ele>1113</ele>
        <time>2021-09-18T17:34:41Z</time>
      </trkpt>
      <trkpt lat="46.46069" lon="6.04772">
        <ele>1112</ele>
        <time>2021-09-18T17:35:25Z</time>
      </trkpt>
      <trkpt lat="46.46106" lon="6.04766">
        <ele>1114</ele>
        <time>2021-09-18T17:36:15Z</time>
      </trkpt>
      <trkpt lat="46.46145" lon="6.04768">
        <ele>1116</ele>
        <time>2021-09-18T17:37:07Z</time>
      </trkpt>
      <trkpt lat="46.46187" lon="6.04775">
        <ele>1114</ele>
        <time>2021-09-18T17:38:03Z</time>
      </trkpt>
      <trkpt lat="46.46208" lon="6.0478">
        <ele>1112</ele>
        <time>2021-09-18T17:38:32Z</time>
      </trkpt>
      <trkpt lat="46.46227" lon="6.04776">
        <ele>1112</ele>
        <time>2021-09-18T17:38:57Z</time>
      </trkpt>
      <trkpt lat="46.46247" lon="6.04753">
        <ele>1116</ele>
        <time>2021-09-18T17:39:31Z</time>
      </trkpt>
      <trkpt lat="46.46267" lon="6.04743">
        <ele>1117</ele>
        <time>2021-09-18T17:40:00Z</time>
      </trkpt>
      <trkpt lat="46.46291" lon="6.04736">
        <ele>1117</ele>
        <time>2021-09-18T17:40:32Z</time>
      </trkpt>
      <trkpt lat="46.46308" lon="6.04726">
        <ele>1118</ele>
        <time>2021-09-18T17:40:57Z</time>
      </trkpt>
      <trkpt lat="46.46327" lon="6.04687">
        <ele>1123</ele>
        <time>2021-09-18T17:41:41Z</time>
      </trkpt>
      <trkpt lat="46.46358" lon="6.04655">
        <ele>1121</ele>
        <time>2021-09-18T17:42:31Z</time>
      </trkpt>
      <trkpt lat="46.46387" lon="6.0462">
        <ele>1119</ele>
        <time>2021-09-18T17:43:22Z</time>
      </trkpt>
      <trkpt lat="46.46408" lon="6.04582">
        <ele>1116</ele>
        <time>2021-09-18T17:44:07Z</time>
      </trkpt>
      <trkpt lat="46.46413" lon="6.04572">
        <ele>1115</ele>
        <time>2021-09-18T17:44:18Z</time>
      </trkpt>
      <trkpt lat="46.46432" lon="6.04525">
        <ele>1109</ele>
        <time>2021-09-18T17:45:08Z</time>
      </trkpt>
      <trkpt lat="46.46448" lon="6.04486">
        <ele>1106</ele>
        <time>2021-09-18T17:45:50Z</time>
      </trkpt>
      <trkpt lat="46.46461" lon="6.04459">
        <ele>1104</ele>
        <time>2021-09-18T17:46:20Z</time>
      </trkpt>
      <trkpt lat="46.46477" lon="6.04436">
        <ele>1103</ele>
        <time>2021-09-18T17:46:50Z</time>
      </trkpt>
      <trkpt lat="46.4649" lon="6.04414">
        <ele>1103</ele>
        <time>2021-09-18T17:47:17Z</time>
      </trkpt>
      <trkpt lat="46.46507" lon="6.04389">
        <ele>1103</ele>
        <time>2021-09-18T17:47:49Z</time>
      </trkpt>
      <trkpt lat="46.46528" lon="6.04368">
        <ele>1102</ele>
        <time>2021-09-18T17:48:23Z</time>
      </trkpt>
      <trkpt lat="46.46571" lon="6.04343">
        <ele>1099</ele>
        <time>2021-09-18T17:49:25Z</time>
      </trkpt>
      <trkpt lat="46.466" lon="6.04335">
        <ele>1096</ele>
        <time>2021-09-18T17:50:04Z</time>
      </trkpt>
      <trkpt lat="46.4663" lon="6.04332">
        <ele>1093</ele>
        <time>2021-09-18T17:50:44Z</time>
      </trkpt>
      <trkpt lat="46.46644" lon="6.04324">
        <ele>1092</ele>
        <time>2021-09-18T17:51:04Z</time>
      </trkpt>
      <trkpt lat="46.46665" lon="6.04296">
        <ele>1092</ele>
        <time>2021-09-18T17:51:42Z</time>
      </trkpt>
      <trkpt lat="46.46686" lon="6.04265">
        <ele>1092</ele>
        <time>2021-09-18T17:52:22Z</time>
      </trkpt>
      <trkpt lat="46.46695" lon="6.04245">
        <ele>1092</ele>
        <time>2021-09-18T17:52:44Z</time>
      </trkpt>
      <trkpt lat="46.46696" lon="6.04228">
        <ele>1092</ele>
        <time>2021-09-18T17:53:00Z</time>
      </trkpt>
      <trkpt lat="46.46695" lon="6.04215">
        <ele>1093</ele>
        <time>2021-09-18T17:53:12Z</time>
      </trkpt>
      <trkpt lat="46.46684" lon="6.04183">
        <ele>1095</ele>
        <time>2021-09-18T17:53:45Z</time>
      </trkpt>
      <trkpt lat="46.46672" lon="6.04157">
        <ele>1097</ele>
        <time>2021-09-18T17:54:14Z</time>
      </trkpt>
      <trkpt lat="46.46658" lon="6.04131">
        <ele>1098</ele>
        <time>2021-09-18T17:54:44Z</time>
      </trkpt>
      <trkpt lat="46.46621" lon="6.04078">
        <ele>1098</ele>
        <time>2021-09-18T17:55:53Z</time>
      </trkpt>
      <trkpt lat="46.46599" lon="6.04054">
        <ele>1098</ele>
        <time>2021-09-18T17:56:30Z</time>
      </trkpt>
      <trkpt lat="46.46579" lon="6.04025">
        <ele>1098</ele>
        <time>2021-09-18T17:57:08Z</time>
      </trkpt>
      <trkpt lat="46.4656" lon="6.04">
        <ele>1097</ele>
        <time>2021-09-18T17:57:42Z</time>
      </trkpt>
      <trkpt lat="46.46551" lon="6.03982">
        <ele>1097</ele>
        <time>2021-09-18T17:58:03Z</time>
      </trkpt>
      <trkpt lat="46.46541" lon="6.03944">
        <ele>1098</ele>
        <time>2021-09-18T17:58:40Z</time>
      </trkpt>
      <trkpt lat="46.46543" lon="6.03922">
        <ele>1097</ele>
        <time>2021-09-18T17:59:00Z</time>
      </trkpt>
      <trkpt lat="46.46544" lon="6.03886">
        <ele>1097</ele>
        <time>2021-09-18T17:59:33Z</time>
      </trkpt>
      <trkpt lat="46.46538" lon="6.03844">
        <ele>1097</ele>
        <time>2021-09-18T18:00:13Z</time>
      </trkpt>
      <trkpt lat="46.46526" lon="6.03809">
        <ele>1096</ele>
        <time>2021-09-18T18:00:49Z</time>
      </trkpt>
      <trkpt lat="46.46515" lon="6.03785">
        <ele>1095</ele>
        <time>2021-09-18T18:01:15Z</time>
      </trkpt>
      <trkpt lat="46.46503" lon="6.0376">
        <ele>1094</ele>
        <time>2021-09-18T18:01:43Z</time>
      </trkpt>
      <trkpt lat="46.46488" lon="6.03723">
        <ele>1094</ele>
        <time>2021-09-18T18:02:23Z</time>
      </trkpt>
      <trkpt lat="46.4647" lon="6.03678">
        <ele>1094</ele>
        <time>2021-09-18T18:03:11Z</time>
      </trkpt>
      <trkpt lat="46.46452" lon="6.0364">
        <ele>1096</ele>
        <time>2021-09-18T18:03:53Z</time>
      </trkpt>
      <trkpt lat="46.46434" lon="6.03605">
        <ele>1098</ele>
        <time>2021-09-18T18:04:33Z</time>
      </trkpt>
      <trkpt lat="46.46419" lon="6.03585">
        <ele>1099</ele>
        <time>2021-09-18T18:05:00Z</time>
      </trkpt>
      <trkpt lat="46.46408" lon="6.03564">
        <ele>1102</ele>
        <time>2021-09-18T18:05:25Z</time>
      </trkpt>
      <trkpt lat="46.46404" lon="6.03533">
        <ele>1105</ele>
        <time>2021-09-18T18:05:54Z</time>
      </trkpt>
      <trkpt lat="46.46405" lon="6.03506">
        <ele>1106</ele>
        <time>2021-09-18T18:06:18Z</time>
      </trkpt>
      <trkpt lat="46.46409" lon="6.03479">
        <ele>1107</ele>
        <time>2021-09-18T18:06:44Z</time>
      </trkpt>
      <trkpt lat="46.46407" lon="6.03453">
        <ele>1108</ele>
        <time>2021-09-18T18:07:08Z</time>
      </trkpt>
      <trkpt lat="46.46403" lon="6.03429">
        <ele>1110</ele>
        <time>2021-09-18T18:07:31Z</time>
      </trkpt>
      <trkpt lat="46.46392" lon="6.03404">
        <ele>1111</ele>
        <time>2021-09-18T18:07:58Z</time>
      </trkpt>
      <trkpt lat="46.46375" lon="6.03383">
        <ele>1112</ele>
        <time>2021-09-18T18:08:28Z</time>
      </trkpt>
      <trkpt lat="46.46363" lon="6.03367">
        <ele>1113</ele>
        <time>2021-09-18T18:08:49Z</time>
      </trkpt>
      <trkpt lat="46.46345" lon="6.03348">
        <ele>1114</ele>
        <time>2021-09-18T18:09:19Z</time>
      </trkpt>
      <trkpt lat="46.46332" lon="6.03326">
        <ele>1115</ele>
        <time>2021-09-18T18:09:46Z</time>
      </trkpt>
      <trkpt lat="46.46322" lon="6.03303">
        <ele>1116</ele>
        <time>2021-09-18T18:10:11Z</time>
      </trkpt>
      <trkpt lat="46.46313" lon="6.03284">
        <ele>1117</ele>
        <time>2021-09-18T18:10:32Z</time>
      </trkpt>
      <trkpt lat="46.46316" lon="6.03279">
        <ele>1117</ele>
        <time>2021-09-18T18:10:38Z</time>
      </trkpt>
      <trkpt lat="46.46302" lon="6.03253">
        <ele>1118</ele>
        <time>2021-09-18T18:11:08Z</time>
      </trkpt>
      <trkpt lat="46.46291" lon="6.03226">
        <ele>1119</ele>
        <time>2021-09-18T18:11:37Z</time>
      </trkpt>
      <trkpt lat="46.46282" lon="6.0322">
        <ele>1120</ele>
        <time>2021-09-18T18:11:50Z</time>
      </trkpt>
      <trkpt lat="46.46276" lon="6.0321">
        <ele>1120</ele>
        <time>2021-09-18T18:12:03Z</time>
      </trkpt>
      <trkpt lat="46.46267" lon="6.03182">
        <ele>1119</ele>
        <time>2021-09-18T18:12:31Z</time>
      </trkpt>
      <trkpt lat="46.46256" lon="6.03157">
        <ele>1119</ele>
        <time>2021-09-18T18:12:58Z</time>
      </trkpt>
      <trkpt lat="46.4624" lon="6.03129">
        <ele>1118</ele>
        <time>2021-09-18T18:13:32Z</time>
      </trkpt>
      <trkpt lat="46.46233" lon="6.03118">
        <ele>1118</ele>
        <time>2021-09-18T18:13:45Z</time>
      </trkpt>
      <trkpt lat="46.46218" lon="6.03095">
        <ele>1117</ele>
        <time>2021-09-18T18:14:15Z</time>
      </trkpt>
      <trkpt lat="46.46216" lon="6.0308">
        <ele>1117</ele>
        <time>2021-09-18T18:14:29Z</time>
      </trkpt>
      <trkpt lat="46.46216" lon="6.03068">
        <ele>1117</ele>
        <time>2021-09-18T18:14:40Z</time>
      </trkpt>
      <trkpt lat="46.46168" lon="6.03011">
        <ele>1117</ele>
        <time>2021-09-18T18:16:02Z</time>
      </trkpt>
      <trkpt lat="46.46146" lon="6.02978">
        <ele>1118</ele>
        <time>2021-09-18T18:16:45Z</time>
      </trkpt>
      <trkpt lat="46.46137" lon="6.02973">
        <ele>1119</ele>
        <time>2021-09-18T18:16:57Z</time>
      </trkpt>
      <trkpt lat="46.46174" lon="6.02925">
        <ele>1118</ele>
        <time>2021-09-18T18:18:04Z</time>
      </trkpt>
      <trkpt lat="46.46196" lon="6.02908">
        <ele>1120</ele>
        <time>2021-09-18T18:18:37Z</time>
      </trkpt>
      <trkpt lat="46.46201" lon="6.02897">
        <ele>1120</ele>
        <time>2021-09-18T18:18:49Z</time>
      </trkpt>
      <trkpt lat="46.462" lon="6.02842">
        <ele>1124</ele>
        <time>2021-09-18T18:19:40Z</time>
      </trkpt>
      <trkpt lat="46.46204" lon="6.02816">
        <ele>1126</ele>
        <time>2021-09-18T18:20:04Z</time>
      </trkpt>
      <trkpt lat="46.46197" lon="6.02813">
        <ele>1127</ele>
        <time>2021-09-18T18:20:14Z</time>
      </trkpt>
      <trkpt lat="46.46199" lon="6.02795">
        <ele>1129</ele>
        <time>2021-09-18T18:20:31Z</time>
      </trkpt>
      <trkpt lat="46.46205" lon="6.02792">
        <ele>1129</ele>
        <time>2021-09-18T18:20:39Z</time>
      </trkpt>
      <trkpt lat="46.46203" lon="6.02786">
        <ele>1130</ele>
        <time>2021-09-18T18:20:45Z</time>
      </trkpt>
      <trkpt lat="46.46218" lon="6.02739">
        <ele>1134</ele>
        <time>2021-09-18T18:21:33Z</time>
      </trkpt>
      <trkpt lat="46.46222" lon="6.02733">
        <ele>1134</ele>
        <time>2021-09-18T18:21:40Z</time>
      </trkpt>
      <trkpt lat="46.46229" lon="6.02738">
        <ele>1133</ele>
        <time>2021-09-18T18:21:51Z</time>
      </trkpt>
      <trkpt lat="46.46234" lon="6.02752">
        <ele>1132</ele>
        <time>2021-09-18T18:22:05Z</time>
      </trkpt>
      <trkpt lat="46.46271" lon="6.02649">
        <ele>1132</ele>
        <time>2021-09-18T18:23:52Z</time>
      </trkpt>
      <trkpt lat="46.46284" lon="6.02605">
        <ele>1130</ele>
        <time>2021-09-18T18:24:36Z</time>
      </trkpt>
      <trkpt lat="46.46285" lon="6.02587">
        <ele>1129</ele>
        <time>2021-09-18T18:24:53Z</time>
      </trkpt>
      <trkpt lat="46.4628" lon="6.02563">
        <ele>1128</ele>
        <time>2021-09-18T18:25:16Z</time>
      </trkpt>
      <trkpt lat="46.46277" lon="6.02554">
        <ele>1127</ele>
        <time>2021-09-18T18:25:25Z</time>
      </trkpt>
      <trkpt lat="46.46257" lon="6.02534">
        <ele>1127</ele>
        <time>2021-09-18T18:25:57Z</time>
      </trkpt>
      <trkpt lat="46.46244" lon="6.02513">
        <ele>1127</ele>
        <time>2021-09-18T18:26:23Z</time>
      </trkpt>
      <trkpt lat="46.46229" lon="6.02476">
        <ele>1128</ele>
        <time>2021-09-18T18:27:03Z</time>
      </trkpt>
      <trkpt lat="46.46227" lon="6.02466">
        <ele>1128</ele>
        <time>2021-09-18T18:27:12Z</time>
      </trkpt>
      <trkpt lat="46.46227" lon="6.02447">
        <ele>1127</ele>
        <time>2021-09-18T18:27:30Z</time>
      </trkpt>
      <trkpt lat="46.46231" lon="6.02425">
        <ele>1126</ele>
        <time>2021-09-18T18:27:51Z</time>
      </trkpt>
      <trkpt lat="46.46242" lon="6.02394">
        <ele>1122</ele>
        <time>2021-09-18T18:28:23Z</time>
      </trkpt>
      <trkpt lat="46.46248" lon="6.02367">
        <ele>1121</ele>
        <time>2021-09-18T18:28:49Z</time>
      </trkpt>
      <trkpt lat="46.46246" lon="6.0235">
        <ele>1121</ele>
        <time>2021-09-18T18:29:05Z</time>
      </trkpt>
      <trkpt lat="46.46242" lon="6.02322">
        <ele>1123</ele>
        <time>2021-09-18T18:29:31Z</time>
      </trkpt>
      <trkpt lat="46.46244" lon="6.02296">
        <ele>1126</ele>
        <time>2021-09-18T18:29:55Z</time>
      </trkpt>
      <trkpt lat="46.46247" lon="6.02274">
        <ele>1127</ele>
        <time>2021-09-18T18:30:16Z</time>
      </trkpt>
      <trkpt lat="46.46255" lon="6.02242">
        <ele>1128</ele>
        <time>2021-09-18T18:30:47Z</time>
      </trkpt>
      <trkpt lat="46.46264" lon="6.02219">
        <ele>1128</ele>
        <time>2021-09-18T18:31:11Z</time>
      </trkpt>
      <trkpt lat="46.46282" lon="6.0217">
        <ele>1126</ele>
        <time>2021-09-18T18:32:02Z</time>
      </trkpt>
      <trkpt lat="46.46286" lon="6.02148">
        <ele>1126</ele>
        <time>2021-09-18T18:32:23Z</time>
      </trkpt>
      <trkpt lat="46.46292" lon="6.02044">
        <ele>1128</ele>
        <time>2021-09-18T18:33:59Z</time>
      </trkpt>
    </trkseg>
  </trk>
</gpx>